Time;durP1;ratioP1;P1;durP2;ratioP2;P2;SDS_P1;SDS_P2;PMS_P1;PMS_P2;Temp;Humidity;BMP_temperature;BMP_pressure;BME280_temperature;BME280_humidity;BME280_pressure;Samples;Min_cycle;Max_cycle;Signal;HPM_P1;HPM_P2
2022/01/07 00:02:00;;;;;;;29.33;18.15;;;-2.60;99.90;;;;;;4877177;29;20403;-83
2022/01/07 00:04:26;;;;;;;31.75;18.55;;;-2.60;99.90;;;;;;4875187;29;20399;-82
2022/01/07 00:06:52;;;;;;;28.33;16.42;;;-2.60;99.90;;;;;;4892854;29;20401;-82
2022/01/07 00:09:18;;;;;;;26.80;16.23;;;-2.60;99.90;;;;;;4879596;29;20396;-80
2022/01/07 00:11:44;;;;;;;22.20;15.13;;;-2.60;99.90;;;;;;4895733;29;20402;-82
2022/01/07 00:14:10;;;;;;;25.87;14.53;;;-2.50;99.90;;;;;;4897204;29;20410;-82
2022/01/07 00:16:36;;;;;;;30.63;16.00;;;-2.40;99.90;;;;;;4880314;29;20401;-81
2022/01/07 00:19:02;;;;;;;29.25;15.20;;;-2.40;99.90;;;;;;4897865;29;20386;-81
2022/01/07 00:21:28;;;;;;;26.90;15.80;;;-2.30;99.90;;;;;;4877568;29;20401;-80
2022/01/07 00:23:54;;;;;;;24.20;14.73;;;-2.30;99.90;;;;;;4877650;29;20399;-81
2022/01/07 00:26:19;;;;;;;27.13;14.57;;;-2.30;99.90;;;;;;4879080;29;20956;-81
2022/01/07 00:28:45;;;;;;;21.83;14.53;;;-2.30;99.90;;;;;;4879614;29;20477;-81
2022/01/07 00:31:10;;;;;;;25.17;13.65;;;-2.30;99.90;;;;;;4897357;29;20756;-82
2022/01/07 00:33:36;;;;;;;21.55;12.13;;;-2.30;99.90;;;;;;4880855;29;20389;-82
2022/01/07 00:36:02;;;;;;;23.58;12.95;;;-2.30;99.90;;;;;;4897376;29;20401;-82
2022/01/07 00:38:30;;;;;;;24.30;13.25;;;-2.30;99.90;;;;;;4897137;29;20971;-81
2022/01/07 00:40:56;;;;;;;20.30;11.88;;;-2.30;99.90;;;;;;4880280;29;20848;-82
2022/01/07 00:43:22;;;;;;;26.20;12.88;;;-2.40;99.90;;;;;;4877364;29;20399;-82
2022/01/07 00:45:47;;;;;;;22.27;13.00;;;-2.30;99.90;;;;;;4894908;29;20472;-82
2022/01/07 00:48:13;;;;;;;23.40;13.03;;;-2.40;99.90;;;;;;4877124;29;20462;-82
2022/01/07 00:50:38;;;;;;;25.10;13.07;;;-2.40;99.90;;;;;;4879491;29;20393;-81
2022/01/07 00:53:04;;;;;;;23.15;12.38;;;-2.50;99.90;;;;;;4880551;29;20448;-82
2022/01/07 00:55:30;;;;;;;28.38;14.90;;;-2.40;99.90;;;;;;4896698;29;20512;-82
2022/01/07 00:57:56;;;;;;;23.38;14.52;;;-2.50;99.90;;;;;;4876766;29;20438;-81
2022/01/07 01:00:24;;;;;;;23.67;13.33;;;-2.40;99.90;;;;;;4878815;29;20435;-82
2022/01/07 01:02:50;;;;;;;22.10;13.73;;;-2.50;99.90;;;;;;4869869;29;20398;-81
2022/01/07 01:05:16;;;;;;;22.77;12.98;;;-2.50;99.90;;;;;;4878067;29;20417;-81
2022/01/07 01:07:42;;;;;;;24.77;12.90;;;-2.50;99.90;;;;;;4861598;29;20458;-81
2022/01/07 01:10:10;;;;;;;22.85;12.38;;;-2.50;99.90;;;;;;4878350;29;20443;-82
2022/01/07 01:12:37;;;;;;;24.60;12.83;;;-2.50;99.90;;;;;;4870292;29;20892;-81
2022/01/07 01:15:04;;;;;;;21.70;12.25;;;-2.60;99.90;;;;;;4894374;29;20393;-81
2022/01/07 01:17:29;;;;;;;21.67;12.02;;;-2.60;99.90;;;;;;4880221;29;20806;-82
2022/01/07 01:19:55;;;;;;;25.80;12.70;;;-2.60;99.90;;;;;;4896555;29;20393;-82
2022/01/07 01:22:21;;;;;;;25.55;12.90;;;-2.60;99.90;;;;;;4896688;29;20420;-81
2022/01/07 01:24:47;;;;;;;21.35;11.15;;;-2.70;99.90;;;;;;4896163;29;20413;-81
2022/01/07 01:27:13;;;;;;;22.05;11.82;;;-2.70;99.90;;;;;;4896623;29;20401;-80
2022/01/07 01:29:39;;;;;;;24.20;11.82;;;-2.70;99.90;;;;;;4895167;29;20404;-81
2022/01/07 01:32:04;;;;;;;22.40;11.13;;;-2.70;99.90;;;;;;4896295;29;20536;-81
2022/01/07 01:34:30;;;;;;;23.33;10.98;;;-2.70;99.90;;;;;;4896051;29;20457;-81
2022/01/07 01:36:56;;;;;;;23.77;11.45;;;-2.60;99.90;;;;;;4876316;29;20929;-81
2022/01/07 01:39:21;;;;;;;24.65;11.20;;;-2.50;99.90;;;;;;4879005;29;20541;-81
2022/01/07 01:41:47;;;;;;;20.52;10.95;;;-2.50;99.90;;;;;;4896426;29;20398;-81
2022/01/07 01:44:13;;;;;;;22.83;10.50;;;-2.40;99.90;;;;;;4895675;29;20487;-81
2022/01/07 01:46:39;;;;;;;21.75;11.05;;;-2.30;99.90;;;;;;4896270;29;20393;-80
2022/01/07 01:49:05;;;;;;;22.30;10.73;;;-2.30;99.90;;;;;;4879329;29;20757;-82
2022/01/07 01:51:32;;;;;;;24.00;11.30;;;-2.30;99.90;;;;;;4878764;29;20377;-80
2022/01/07 01:53:59;;;;;;;27.50;11.95;;;-2.40;99.90;;;;;;4861771;29;20966;-80
2022/01/07 01:56:24;;;;;;;27.60;12.30;;;-2.30;99.90;;;;;;4895772;29;20480;-81
2022/01/07 01:58:50;;;;;;;25.15;11.30;;;-2.40;99.90;;;;;;4878930;29;20557;-81
2022/01/07 02:01:16;;;;;;;26.83;11.67;;;-2.30;99.90;;;;;;4896324;29;20396;-82
2022/01/07 02:03:41;;;;;;;23.03;11.00;;;-2.40;99.90;;;;;;4876783;29;20411;-81
2022/01/07 02:06:07;;;;;;;26.77;11.90;;;-2.30;99.90;;;;;;4877473;29;20437;-81
2022/01/07 02:08:36;;;;;;;26.47;11.70;;;-2.20;99.90;;;;;;4890460;29;20884;-82
2022/01/07 02:11:03;;;;;;;25.05;10.93;;;-2.20;99.90;;;;;;4876036;29;20395;-81
2022/01/07 02:13:28;;;;;;;25.83;11.60;;;-2.20;99.90;;;;;;4881163;29;20401;-81
2022/01/07 02:15:54;;;;;;;25.57;11.77;;;-2.20;99.90;;;;;;4895378;29;20405;-81
2022/01/07 02:18:19;;;;;;;23.10;11.50;;;-2.10;99.90;;;;;;4878864;29;20397;-82
2022/01/07 02:20:47;;;;;;;28.35;11.82;;;-2.10;99.90;;;;;;4895673;29;20484;-82
2022/01/07 02:23:13;;;;;;;23.00;11.03;;;-2.00;99.90;;;;;;4894955;29;20419;-81
2022/01/07 02:25:39;;;;;;;22.23;11.75;;;-2.00;99.90;;;;;;4878534;29;20912;-81
2022/01/07 02:28:05;;;;;;;27.60;11.77;;;-2.00;99.90;;;;;;4895158;29;20404;-82
2022/01/07 02:30:31;;;;;;;22.80;10.90;;;-2.00;99.90;;;;;;4895448;29;20389;-80
2022/01/07 02:32:58;;;;;;;25.58;10.88;;;-2.00;99.90;;;;;;4895232;29;20884;-82
2022/01/07 02:35:28;;;;;;;25.40;11.40;;;-2.00;99.90;;;;;;4878457;29;20399;-82
2022/01/07 02:37:54;;;;;;;23.55;11.85;;;-2.10;99.90;;;;;;4878095;29;20401;-81
2022/01/07 02:40:20;;;;;;;23.10;12.00;;;-2.10;99.90;;;;;;4894078;29;20988;-80
2022/01/07 02:42:46;;;;;;;20.67;11.30;;;-2.10;99.90;;;;;;4895202;29;20401;-82
2022/01/07 02:45:13;;;;;;;23.60;11.52;;;-2.10;99.90;;;;;;4895041;29;20405;-82
2022/01/07 02:47:52;;;;;;;26.35;11.35;;;-2.10;99.90;;;;;;4875497;29;20430;-82
2022/01/07 02:50:21;;;;;;;30.02;12.13;;;-2.10;99.90;;;;;;4877881;29;20408;-81
2022/01/07 02:52:47;;;;;;;27.15;12.05;;;-2.10;99.90;;;;;;4895025;29;20457;-81
2022/01/07 02:55:13;;;;;;;19.70;10.43;;;-2.10;99.90;;;;;;4893814;29;20440;-82
2022/01/07 02:57:39;;;;;;;21.90;11.37;;;-2.10;99.90;;;;;;4878033;29;20776;-81
2022/01/07 03:00:06;;;;;;;22.00;11.13;;;-2.10;99.90;;;;;;4895240;29;20397;-81
2022/01/07 03:02:32;;;;;;;25.25;12.25;;;-2.10;99.90;;;;;;4878186;29;20426;-82
2022/01/07 03:04:58;;;;;;;27.10;12.55;;;-2.10;99.90;;;;;;4874768;29;20450;-82
2022/01/07 03:07:24;;;;;;;27.52;13.00;;;-2.20;99.90;;;;;;4864167;29;20904;-82
2022/01/07 03:09:49;;;;;;;28.05;13.93;;;-2.10;99.90;;;;;;4894725;29;20412;-81
2022/01/07 03:12:15;;;;;;;32.80;13.75;;;-2.10;99.90;;;;;;4894731;29;20397;-81
2022/01/07 03:14:40;;;;;;;23.87;12.87;;;-2.10;99.90;;;;;;4894732;29;20428;-81
2022/01/07 03:17:06;;;;;;;24.87;12.53;;;-2.00;99.90;;;;;;4894846;29;20408;-82
2022/01/07 03:19:32;;;;;;;28.50;13.33;;;-1.90;99.90;;;;;;4894801;29;20397;-81
2022/01/07 03:21:57;;;;;;;24.45;12.73;;;-1.90;99.90;;;;;;4875471;29;20543;-80
2022/01/07 03:24:23;;;;;;;28.17;13.27;;;-1.90;99.90;;;;;;4879810;29;20432;-82
2022/01/07 03:26:49;;;;;;;26.38;13.55;;;-1.80;99.90;;;;;;4902686;29;20399;-81
2022/01/07 03:29:14;;;;;;;25.60;13.45;;;-1.80;99.90;;;;;;4902646;29;20392;-81
2022/01/07 03:31:40;;;;;;;28.47;13.63;;;-1.70;99.90;;;;;;4897885;29;20904;-82
2022/01/07 03:34:05;;;;;;;29.00;13.87;;;-1.60;99.90;;;;;;4899021;29;20397;-80
2022/01/07 03:36:31;;;;;;;26.27;12.73;;;-1.60;99.90;;;;;;4896267;29;20397;-81
2022/01/07 03:38:57;;;;;;;29.57;14.27;;;-1.50;99.90;;;;;;4895100;29;20492;-82
2022/01/07 03:41:23;;;;;;;28.92;13.40;;;-1.50;99.90;;;;;;4894715;29;20397;-81
2022/01/07 03:43:48;;;;;;;24.23;12.40;;;-1.50;99.90;;;;;;4893405;29;20440;-82
2022/01/07 03:46:14;;;;;;;23.67;12.47;;;-1.30;99.90;;;;;;4894233;29;20453;-83
2022/01/07 03:48:40;;;;;;;27.70;13.17;;;-1.30;99.90;;;;;;4894777;29;20461;-82
2022/01/07 03:51:05;;;;;;;27.17;13.00;;;-1.30;99.90;;;;;;4893619;29;20399;-81
2022/01/07 03:53:31;;;;;;;23.53;12.70;;;-1.20;99.90;;;;;;4894687;29;20408;-82
2022/01/07 03:55:57;;;;;;;25.20;12.40;;;-1.20;99.90;;;;;;4894606;29;20921;-83
2022/01/07 03:58:22;;;;;;;26.02;13.10;;;-1.20;99.90;;;;;;4894506;29;20409;-82
2022/01/07 04:00:48;;;;;;;24.20;12.40;;;-1.20;99.90;;;;;;4877487;29;20448;-82
2022/01/07 04:03:17;;;;;;;24.27;12.55;;;-1.20;99.90;;;;;;4893978;29;20988;-84
2022/01/07 04:05:43;;;;;;;26.42;12.20;;;-1.20;99.90;;;;;;4894629;29;20892;-83
2022/01/07 04:08:09;;;;;;;20.95;11.68;;;-1.20;99.90;;;;;;4893127;29;20494;-82
2022/01/07 04:10:35;;;;;;;23.30;12.77;;;-1.10;99.90;;;;;;4894711;29;20451;-82
2022/01/07 04:13:02;;;;;;;24.45;12.75;;;-1.10;99.90;;;;;;4894492;29;20397;-82
2022/01/07 04:15:28;;;;;;;20.90;11.80;;;-1.00;99.90;;;;;;4897703;29;20401;-82
2022/01/07 04:17:54;;;;;;;19.85;11.30;;;-1.00;99.90;;;;;;4897653;29;20496;-83
2022/01/07 04:20:23;;;;;;;20.77;11.98;;;-0.90;99.90;;;;;;4897458;29;20911;-83
2022/01/07 04:22:49;;;;;;;23.07;12.03;;;-0.90;99.90;;;;;;4877862;29;20422;-82
2022/01/07 04:25:18;;;;;;;23.45;12.15;;;-0.90;99.90;;;;;;4873687;29;20477;-83
2022/01/07 04:27:46;;;;;;;26.38;12.40;;;-0.90;99.90;;;;;;4897538;29;20417;-83
2022/01/07 04:30:12;;;;;;;26.08;13.40;;;-0.90;99.90;;;;;;4897969;29;20748;-83
2022/01/07 04:32:38;;;;;;;24.73;12.85;;;-0.80;99.90;;;;;;4896538;29;20408;-82
2022/01/07 04:35:06;;;;;;;24.75;12.70;;;-0.80;99.90;;;;;;4897415;29;20389;-83
2022/01/07 04:37:32;;;;;;;23.85;13.00;;;-0.70;99.90;;;;;;4897413;29;20796;-82
2022/01/07 04:39:57;;;;;;;22.17;12.98;;;-0.70;99.90;;;;;;4880883;29;20930;-83
2022/01/07 04:42:23;;;;;;;23.90;13.23;;;-0.70;99.90;;;;;;4881014;29;20401;-82
2022/01/07 04:44:48;;;;;;;28.13;13.63;;;-0.70;99.90;;;;;;4896905;29;20431;-83
2022/01/07 04:47:14;;;;;;;21.55;12.50;;;-0.60;99.90;;;;;;4880405;29;20448;-83
2022/01/07 04:49:39;;;;;;;22.90;12.93;;;-0.60;99.90;;;;;;4897468;29;20404;-83
2022/01/07 04:52:06;;;;;;;26.83;13.80;;;-0.60;99.90;;;;;;4880520;29;20444;-83
2022/01/07 04:54:32;;;;;;;23.15;12.95;;;-0.60;99.90;;;;;;4897128;29;20385;-83
2022/01/07 04:56:58;;;;;;;23.55;13.02;;;-0.50;99.90;;;;;;4897697;29;20397;-83
2022/01/07 04:59:24;;;;;;;24.37;13.87;;;-0.50;99.90;;;;;;4880125;29;20409;-81
2022/01/07 05:01:51;;;;;;;23.45;13.23;;;-0.50;99.90;;;;;;4897223;29;20397;-83
2022/01/07 05:04:17;;;;;;;26.80;13.13;;;-0.50;99.90;;;;;;4879265;29;20398;-84
2022/01/07 05:06:45;;;;;;;25.42;13.95;;;-0.40;99.90;;;;;;4897133;29;20409;-82
2022/01/07 05:09:18;;;;;;;22.50;13.27;;;-0.40;99.90;;;;;;4880684;29;20476;-82
2022/01/07 05:11:51;;;;;;;27.50;14.60;;;-0.40;99.90;;;;;;4897050;29;20440;-81
2022/01/07 05:14:18;;;;;;;23.83;13.93;;;-0.40;99.90;;;;;;4896230;29;20414;-82
2022/01/07 05:16:44;;;;;;;21.75;14.63;;;-0.40;99.90;;;;;;4896892;29;20897;-83
2022/01/07 05:19:10;;;;;;;26.38;14.50;;;-0.30;99.90;;;;;;4895594;29;20456;-83
2022/01/07 05:21:37;;;;;;;25.38;14.63;;;-0.20;99.90;;;;;;4897077;29;20456;-82
2022/01/07 05:24:03;;;;;;;27.13;16.05;;;-0.30;99.90;;;;;;4896274;29;20914;-83
2022/01/07 05:26:29;;;;;;;22.98;15.00;;;-0.30;99.90;;;;;;4895388;29;20498;-82
2022/01/07 05:28:55;;;;;;;23.43;15.47;;;-0.30;99.90;;;;;;4879246;29;20473;-82
2022/01/07 05:31:24;;;;;;;27.53;14.77;;;-0.20;99.90;;;;;;4896365;29;20396;-81
2022/01/07 05:33:52;;;;;;;24.38;14.82;;;-0.20;99.90;;;;;;4876956;29;20410;-82
2022/01/07 05:36:18;;;;;;;23.30;12.85;;;-0.20;99.90;;;;;;4895125;29;20415;-82
2022/01/07 05:38:44;;;;;;;22.30;13.43;;;-0.20;99.90;;;;;;4878316;29;20894;-81
2022/01/07 05:41:13;;;;;;;27.27;13.55;;;-0.10;99.90;;;;;;4876516;29;20418;-82
2022/01/07 05:43:39;;;;;;;22.40;13.88;;;-0.10;99.90;;;;;;4877765;29;20447;-82
2022/01/07 05:46:05;;;;;;;24.38;13.63;;;-0.10;99.90;;;;;;4877619;29;20422;-82
2022/01/07 05:48:32;;;;;;;22.50;12.93;;;-0.10;99.90;;;;;;4896155;29;20392;-82
2022/01/07 05:50:57;;;;;;;20.03;12.73;;;0.00;99.90;;;;;;4896052;29;20394;-83
2022/01/07 05:53:23;;;;;;;25.60;13.30;;;0.00;99.90;;;;;;4896037;29;20385;-83
2022/01/07 05:55:49;;;;;;;25.13;13.70;;;-0.10;99.90;;;;;;4896450;29;20770;-84
2022/01/07 05:58:16;;;;;;;20.23;13.45;;;-0.10;99.90;;;;;;4879525;29;20397;-83
2022/01/07 06:00:41;;;;;;;21.17;12.93;;;0.00;99.90;;;;;;4896071;29;20409;-83
2022/01/07 06:03:07;;;;;;;22.83;13.00;;;0.00;99.90;;;;;;4896242;29;20429;-82
2022/01/07 06:05:33;;;;;;;21.88;12.90;;;0.00;99.90;;;;;;4895926;29;20402;-82
2022/01/07 06:07:58;;;;;;;22.70;12.98;;;0.00;99.90;;;;;;4879144;29;20409;-83
2022/01/07 06:10:24;;;;;;;19.15;12.32;;;0.00;99.90;;;;;;4896595;29;20457;-84
2022/01/07 06:12:49;;;;;;;22.30;12.80;;;0.00;99.90;;;;;;4896209;29;20397;-83
2022/01/07 06:15:15;;;;;;;26.00;13.20;;;0.10;99.90;;;;;;4895742;29;20401;-83
2022/01/07 06:17:41;;;;;;;18.97;12.50;;;0.10;99.90;;;;;;4873574;29;20400;-81
2022/01/07 06:20:08;;;;;;;19.53;12.70;;;0.10;99.90;;;;;;4877244;29;20381;-81
2022/01/07 06:22:34;;;;;;;21.67;12.73;;;0.10;99.90;;;;;;4878201;29;20428;-83
2022/01/07 06:25:01;;;;;;;22.38;13.00;;;0.10;99.90;;;;;;4878552;29;20460;-82
2022/01/07 06:27:26;;;;;;;20.15;13.50;;;0.10;99.90;;;;;;4894381;29;20389;-83
2022/01/07 06:29:52;;;;;;;25.67;14.10;;;0.10;99.90;;;;;;4895325;29;20488;-81
2022/01/07 06:32:17;;;;;;;20.77;13.43;;;0.10;99.90;;;;;;4878582;29;20397;-83
2022/01/07 06:34:43;;;;;;;28.80;14.33;;;0.10;99.90;;;;;;4878507;29;20433;-84
2022/01/07 06:37:09;;;;;;;21.67;13.70;;;0.10;99.90;;;;;;4894768;29;20389;-83
2022/01/07 06:39:35;;;;;;;23.25;13.13;;;0.20;99.90;;;;;;4895451;29;20384;-83
2022/01/07 06:42:01;;;;;;;22.10;13.27;;;0.10;99.90;;;;;;4895614;29;20713;-84
2022/01/07 06:44:28;;;;;;;22.75;13.13;;;0.20;99.90;;;;;;4878332;29;20398;-82
2022/01/07 06:46:53;;;;;;;20.27;13.93;;;0.10;99.90;;;;;;4878536;29;20552;-81
2022/01/07 06:49:19;;;;;;;25.25;13.95;;;0.10;99.90;;;;;;4895244;29;20392;-84
2022/01/07 06:51:45;;;;;;;23.55;14.25;;;0.10;99.90;;;;;;4895386;29;20389;-83
2022/01/07 06:54:11;;;;;;;21.90;13.90;;;0.10;99.90;;;;;;4878528;29;20389;-80
2022/01/07 06:56:42;;;;;;;24.85;14.18;;;0.20;99.90;;;;;;4895400;29;20385;-80
2022/01/07 06:59:08;;;;;;;25.17;14.65;;;0.20;99.90;;;;;;4878305;29;20382;-81
2022/01/07 07:01:34;;;;;;;19.38;14.07;;;0.20;99.90;;;;;;4877964;29;20492;-81
2022/01/07 07:04:00;;;;;;;22.42;14.07;;;0.20;99.90;;;;;;4875212;29;20537;-81
2022/01/07 07:06:25;;;;;;;26.83;14.50;;;0.30;99.90;;;;;;4878211;29;20464;-82
2022/01/07 07:08:51;;;;;;;25.27;13.57;;;0.30;99.90;;;;;;4895136;29;20377;-82
2022/01/07 07:11:17;;;;;;;18.77;12.80;;;0.20;99.90;;;;;;4874036;29;20489;-83
2022/01/07 07:13:42;;;;;;;22.33;13.47;;;0.30;99.90;;;;;;4894167;29;20392;-80
2022/01/07 07:16:08;;;;;;;20.10;12.97;;;0.20;99.90;;;;;;4894781;29;20397;-84
2022/01/07 07:18:34;;;;;;;21.27;12.50;;;0.20;99.90;;;;;;4878194;29;20389;-80
2022/01/07 07:20:59;;;;;;;24.08;13.82;;;0.20;99.90;;;;;;4895122;29;21017;-81
2022/01/07 07:23:25;;;;;;;19.35;12.63;;;0.30;99.90;;;;;;4877879;29;20791;-83
2022/01/07 07:25:51;;;;;;;21.27;12.70;;;0.20;99.90;;;;;;4895264;29;20405;-81
2022/01/07 07:28:20;;;;;;;23.85;12.77;;;0.30;99.90;;;;;;4894751;29;20861;-83
2022/01/07 07:30:46;;;;;;;21.67;12.82;;;0.30;99.90;;;;;;4894824;29;20419;-84
2022/01/07 07:38:33;;;;;;;18.80;11.35;;;0.40;99.90;;;;;;4894914;29;20411;-83
2022/01/07 07:40:59;;;;;;;20.90;11.55;;;0.40;99.90;;;;;;4874649;29;20486;-83
2022/01/07 07:43:24;;;;;;;22.53;11.60;;;0.40;99.90;;;;;;4874978;29;20474;-84
2022/01/07 07:45:50;;;;;;;19.00;11.68;;;0.40;99.90;;;;;;4885713;29;20421;-83
2022/01/07 07:48:17;;;;;;;20.50;11.30;;;0.40;99.90;;;;;;4878132;29;21330;-83
2022/01/07 07:50:43;;;;;;;20.10;12.10;;;0.40;99.90;;;;;;4903177;29;20405;-82
2022/01/07 07:53:09;;;;;;;21.93;12.00;;;0.50;99.90;;;;;;4906755;29;20469;-82
2022/01/07 07:55:34;;;;;;;19.60;11.57;;;0.50;99.90;;;;;;4881164;29;20401;-83
2022/01/07 07:58:00;;;;;;;17.80;10.77;;;0.60;99.90;;;;;;4896767;29;20397;-84
2022/01/07 08:00:26;;;;;;;18.75;11.02;;;0.60;99.90;;;;;;4896799;29;20472;-82
2022/01/07 08:02:51;;;;;;;19.25;10.65;;;0.60;99.90;;;;;;4879751;29;20768;-83
2022/01/07 08:05:17;;;;;;;14.37;10.20;;;0.60;99.90;;;;;;4880700;29;20477;-82
2022/01/07 08:07:42;;;;;;;19.27;10.43;;;0.60;99.90;;;;;;4897490;29;20412;-83
2022/01/07 08:10:09;;;;;;;18.07;10.70;;;0.70;99.90;;;;;;4897228;29;20410;-81
2022/01/07 08:18:03;;;;;;;18.10;9.95;;;0.80;99.90;;;;;;4898464;29;20456;-83
2022/01/07 08:20:29;;;;;;;16.08;9.88;;;0.80;99.90;;;;;;4881170;29;20382;-83
2022/01/07 08:22:55;;;;;;;16.80;10.77;;;0.70;99.90;;;;;;4880641;29;20885;-84
2022/01/07 08:25:23;;;;;;;17.10;9.95;;;0.80;99.90;;;;;;4898164;29;20397;-83
2022/01/07 08:27:50;;;;;;;17.02;9.90;;;0.80;99.90;;;;;;4881211;29;20768;-81
2022/01/07 08:30:23;;;;;;;16.27;10.07;;;0.80;99.90;;;;;;4897434;29;21250;-83
2022/01/07 08:35:36;;;;;;;17.98;10.88;;;1.00;99.90;;;;;;4897899;29;20556;-81
2022/01/07 08:38:01;;;;;;;17.98;10.40;;;1.00;99.90;;;;;;4897497;29;20439;-82
2022/01/07 08:40:27;;;;;;;20.38;11.77;;;1.00;99.90;;;;;;4897278;29;20840;-81
2022/01/07 08:42:53;;;;;;;16.97;10.13;;;1.10;99.90;;;;;;4880733;29;20888;-81
2022/01/07 08:45:18;;;;;;;16.60;10.00;;;1.20;99.90;;;;;;4880671;29;20821;-81
2022/01/07 08:47:44;;;;;;;15.37;10.10;;;1.20;99.90;;;;;;4880536;29;20450;-81
2022/01/07 08:50:09;;;;;;;15.52;10.07;;;1.20;99.90;;;;;;4897567;29;20435;-81
2022/01/07 08:52:35;;;;;;;15.27;10.05;;;1.30;99.90;;;;;;4897681;29;20469;-80
2022/01/07 08:55:01;;;;;;;16.00;9.33;;;1.30;99.90;;;;;;4897105;29;20899;-79
2022/01/07 08:57:26;;;;;;;18.10;9.93;;;1.40;99.90;;;;;;4897803;29;20438;-81
2022/01/07 08:59:52;;;;;;;20.03;10.03;;;1.40;99.90;;;;;;4897365;29;20424;-82
2022/01/07 09:02:18;;;;;;;14.80;9.75;;;1.40;99.90;;;;;;4897416;29;20393;-79
2022/01/07 09:04:43;;;;;;;18.38;10.48;;;1.50;99.90;;;;;;4897228;29;20872;-81
2022/01/07 09:07:09;;;;;;;18.58;10.05;;;1.60;99.90;;;;;;4897402;29;20388;-81
2022/01/07 09:09:35;;;;;;;17.45;11.02;;;1.60;99.90;;;;;;4877038;29;20398;-80
2022/01/07 09:12:00;;;;;;;20.88;11.18;;;1.60;99.90;;;;;;4879157;29;20477;-80
2022/01/07 09:14:26;;;;;;;17.93;10.93;;;1.60;99.90;;;;;;4879752;29;20383;-80
2022/01/07 09:16:51;;;;;;;15.13;9.67;;;1.60;99.90;;;;;;4877470;29;20442;-80
2022/01/07 09:19:18;;;;;;;18.25;9.82;;;1.60;99.90;;;;;;4868071;29;20409;-82
2022/01/07 09:21:44;;;;;;;18.48;10.07;;;1.60;99.90;;;;;;4896330;29;20453;-82
2022/01/07 09:24:09;;;;;;;15.77;10.25;;;1.70;99.90;;;;;;4897761;29;20386;-80
2022/01/07 09:26:35;;;;;;;17.13;10.37;;;1.80;99.90;;;;;;4897291;29;20445;-80
2022/01/07 09:29:01;;;;;;;15.40;9.60;;;1.90;99.90;;;;;;4897303;29;20480;-80
2022/01/07 09:31:26;;;;;;;17.87;10.07;;;2.00;99.90;;;;;;4896654;29;20518;-81
2022/01/07 09:33:52;;;;;;;15.70;9.38;;;2.00;99.90;;;;;;4896840;29;20403;-80
2022/01/07 09:36:17;;;;;;;16.97;9.83;;;2.10;99.90;;;;;;4880745;29;20393;-82
2022/01/07 09:38:43;;;;;;;16.37;10.10;;;2.10;99.90;;;;;;4896649;29;20489;-80
2022/01/07 09:41:08;;;;;;;17.03;9.90;;;2.20;99.90;;;;;;4897465;29;20393;-80
2022/01/07 09:43:34;;;;;;;17.27;9.90;;;2.30;99.90;;;;;;4880585;29;20393;-82
2022/01/07 09:46:00;;;;;;;15.35;9.75;;;2.40;99.90;;;;;;4896003;29;20408;-81
2022/01/07 09:48:25;;;;;;;16.87;9.70;;;2.50;99.90;;;;;;4896898;29;20424;-80
2022/01/07 09:50:51;;;;;;;15.87;10.00;;;2.50;99.90;;;;;;4879554;29;20390;-82
2022/01/07 09:53:18;;;;;;;14.70;9.80;;;2.60;99.90;;;;;;4896716;29;20872;-80
2022/01/07 09:55:45;;;;;;;17.52;10.02;;;2.70;99.90;;;;;;4880096;29;20417;-80
2022/01/07 09:58:13;;;;;;;15.80;9.73;;;2.80;99.90;;;;;;4897836;29;20401;-81
2022/01/07 10:00:44;;;;;;;17.15;9.93;;;2.80;99.90;;;;;;4896840;29;20457;-80
2022/01/07 10:03:13;;;;;;;16.98;10.02;;;2.70;99.90;;;;;;4897001;29;20437;-81
2022/01/07 10:05:49;;;;;;;17.43;10.83;;;2.80;99.90;;;;;;4877644;29;20575;-81
2022/01/07 10:08:20;;;;;;;17.33;10.30;;;2.90;99.90;;;;;;4861215;29;20456;-82
2022/01/07 10:10:46;;;;;;;16.17;9.70;;;2.90;99.90;;;;;;4893945;29;20421;-80
2022/01/07 10:13:17;;;;;;;13.90;9.13;;;2.90;99.90;;;;;;4878756;29;20425;-81
2022/01/07 10:15:43;;;;;;;14.68;9.52;;;2.90;99.90;;;;;;4896475;29;20404;-82
2022/01/07 10:18:11;;;;;;;16.63;9.10;;;2.90;99.90;;;;;;4895518;29;20757;-82
2022/01/07 10:20:44;;;;;;;15.23;9.20;;;3.00;99.90;;;;;;4895972;29;20472;-83
2022/01/07 10:23:13;;;;;;;16.08;8.77;;;3.00;99.90;;;;;;4895809;29;20861;-83
2022/01/07 10:25:41;;;;;;;13.88;8.98;;;3.10;99.90;;;;;;4878946;29;20496;-83
2022/01/07 10:28:12;;;;;;;14.70;8.50;;;3.10;99.90;;;;;;4879667;29;20377;-82
2022/01/07 10:30:44;;;;;;;15.73;8.75;;;3.00;99.90;;;;;;4895043;29;20445;-82
2022/01/07 10:33:22;;;;;;;14.48;9.18;;;3.10;99.90;;;;;;4879482;29;20496;-79
2022/01/07 10:35:49;;;;;;;15.68;9.07;;;3.00;99.90;;;;;;4879652;29;20430;-81
2022/01/07 10:38:21;;;;;;;15.10;8.68;;;3.00;99.90;;;;;;4895593;29;20405;-81
2022/01/07 10:40:49;;;;;;;17.27;9.07;;;3.00;99.90;;;;;;4879894;29;20449;-82
2022/01/07 10:43:22;;;;;;;14.27;9.15;;;3.00;99.90;;;;;;4895954;29;20861;-81
2022/01/07 10:45:49;;;;;;;17.88;9.23;;;3.10;99.90;;;;;;4896549;29;20469;-82
2022/01/07 10:48:16;;;;;;;16.63;8.90;;;3.10;99.90;;;;;;4880203;29;20903;-82
2022/01/07 10:50:44;;;;;;;14.27;8.45;;;3.00;99.90;;;;;;4895606;29;20900;-81
2022/01/07 10:53:22;;;;;;;14.07;8.70;;;3.00;99.90;;;;;;4879186;29;20385;-82
2022/01/07 10:56:00;;;;;;;15.23;8.68;;;3.00;99.90;;;;;;4895930;29;20873;-82
2022/01/07 10:58:26;;;;;;;16.15;9.30;;;3.10;99.90;;;;;;4879480;29;20421;-82
2022/01/07 11:00:53;;;;;;;14.77;9.18;;;3.10;99.90;;;;;;4895970;29;20396;-83
2022/01/07 11:03:19;;;;;;;14.93;9.53;;;3.10;99.90;;;;;;4878757;29;20405;-83
2022/01/07 11:05:45;;;;;;;15.98;8.90;;;3.00;99.90;;;;;;4879687;29;20851;-82
2022/01/07 11:08:14;;;;;;;15.25;9.35;;;3.00;99.90;;;;;;4895975;29;20395;-81
2022/01/07 11:10:41;;;;;;;15.38;8.88;;;3.10;99.90;;;;;;4879508;29;20869;-82
2022/01/07 11:13:09;;;;;;;13.60;9.45;;;3.10;99.90;;;;;;4895807;29;20440;-82
2022/01/07 11:15:36;;;;;;;17.55;9.88;;;3.00;99.90;;;;;;4883074;29;20880;-81
2022/01/07 11:18:02;;;;;;;14.63;9.77;;;2.90;99.90;;;;;;4905444;29;20409;-82
2022/01/07 11:20:28;;;;;;;16.38;10.13;;;2.90;99.90;;;;;;4897879;29;20860;-81
2022/01/07 11:22:54;;;;;;;17.27;10.63;;;2.90;99.90;;;;;;4897796;29;20393;-83
2022/01/07 11:25:29;;;;;;;17.65;11.35;;;2.90;99.90;;;;;;4900351;29;20413;-81
2022/01/07 11:27:59;;;;;;;18.42;11.65;;;2.90;99.90;;;;;;4882663;29;20476;-81
2022/01/07 11:30:33;;;;;;;21.23;11.30;;;2.90;99.90;;;;;;4880478;29;20389;-81
2022/01/07 11:33:16;;;;;;;18.80;11.97;;;2.80;99.90;;;;;;4882199;29;20407;-82
2022/01/07 11:35:44;;;;;;;17.63;11.82;;;2.80;99.90;;;;;;4882456;29;20432;-81
2022/01/07 11:38:15;;;;;;;17.80;13.20;;;2.70;99.90;;;;;;4899398;29;20440;-81
2022/01/07 11:40:41;;;;;;;18.67;11.70;;;2.70;99.90;;;;;;4882844;29;20458;-81
2022/01/07 11:43:19;;;;;;;22.07;12.33;;;2.80;99.90;;;;;;4900090;29;20385;-82
2022/01/07 11:45:46;;;;;;;19.25;11.82;;;2.80;99.90;;;;;;4898597;29;20413;-82
2022/01/07 11:48:17;;;;;;;20.65;12.55;;;2.80;99.90;;;;;;4898666;29;20393;-81
2022/01/07 11:50:46;;;;;;;16.55;11.40;;;2.80;99.90;;;;;;4898449;29;20825;-81
2022/01/07 11:53:12;;;;;;;18.20;12.57;;;2.80;99.90;;;;;;4881747;29;20397;-81
2022/01/07 11:55:38;;;;;;;19.98;12.30;;;2.90;99.90;;;;;;4881982;29;20952;-81
2022/01/07 11:58:06;;;;;;;17.42;12.10;;;2.80;99.90;;;;;;4890441;29;20792;-81
2022/01/07 12:00:53;;;;;;;18.35;11.70;;;2.80;99.90;;;;;;4897759;29;20385;-81
2022/01/07 12:03:43;;;;;;;18.00;11.65;;;2.80;99.90;;;;;;4881069;29;20381;-81
2022/01/07 12:06:24;;;;;;;19.98;12.07;;;2.70;99.90;;;;;;4895430;29;20416;-82
2022/01/07 12:09:11;;;;;;;21.30;12.20;;;2.70;99.90;;;;;;4898472;29;20401;-81
2022/01/07 12:11:43;;;;;;;20.83;13.03;;;2.60;99.90;;;;;;4898230;29;20381;-83
2022/01/07 12:14:18;;;;;;;21.33;13.07;;;2.50;99.90;;;;;;4898231;29;20453;-81
2022/01/07 12:16:46;;;;;;;19.83;12.20;;;2.60;99.90;;;;;;4898212;29;20403;-82
2022/01/07 12:19:12;;;;;;;17.08;11.68;;;2.70;99.90;;;;;;4880626;29;20816;-81
2022/01/07 12:21:44;;;;;;;16.85;12.32;;;2.70;99.90;;;;;;4897981;29;20412;-81
2022/01/07 12:24:12;;;;;;;22.15;13.63;;;2.70;99.90;;;;;;4898223;29;20388;-81
2022/01/07 12:26:38;;;;;;;17.70;12.90;;;2.70;99.90;;;;;;4898904;29;20440;-81
2022/01/07 12:29:05;;;;;;;19.50;13.13;;;2.70;99.90;;;;;;4898066;29;20432;-82
2022/01/07 12:31:30;;;;;;;23.27;13.70;;;2.70;99.90;;;;;;4897921;29;20386;-81
2022/01/07 12:34:02;;;;;;;22.48;13.45;;;2.70;99.90;;;;;;4897516;29;20420;-81
2022/01/07 12:36:35;;;;;;;19.88;12.93;;;2.80;99.90;;;;;;4880565;29;20393;-82
2022/01/07 12:39:08;;;;;;;22.52;13.80;;;2.70;99.90;;;;;;4897800;29;20389;-82
2022/01/07 12:41:35;;;;;;;22.50;14.20;;;2.80;99.90;;;;;;4881029;29;20500;-81
2022/01/07 12:44:19;;;;;;;23.90;14.27;;;2.80;99.90;;;;;;4880814;29;20441;-80
2022/01/07 12:46:51;;;;;;;22.40;14.07;;;2.70;99.90;;;;;;4880550;29;20425;-82